createdAt,value
2019-03-05T00:01:48.636Z,81.12
2019-03-05T00:04:20.619Z,80.14
2019-03-05T00:06:52.971Z,80.50
2019-03-05T00:09:24.971Z,79.67
2019-03-05T00:11:56.937Z,80.47
2019-03-05T00:14:28.923Z,80.84
2019-03-05T00:17:00.886Z,79.92
2019-03-05T00:19:32.896Z,79.27
2019-03-05T00:22:05.042Z,78.57
2019-03-05T00:25:16.020Z,78.41
2019-03-05T00:28:03.901Z,78.61
2019-03-05T00:30:57.687Z,77.86
2019-03-05T00:34:22.609Z,78.16
2019-03-05T00:37:28.997Z,78.47
2019-03-05T00:40:51.928Z,79.21
2019-03-05T00:43:45.235Z,78.18
2019-03-05T00:46:44.997Z,78.69
2019-03-05T00:50:16.844Z,79.33
2019-03-05T00:53:10.821Z,79.77
2019-03-05T00:56:24.404Z,80.56
2019-03-05T00:59:02.452Z,81.08
2019-03-05T01:02:14.157Z,80.81
2019-03-05T01:05:05.757Z,80.47
2019-03-05T01:07:37.768Z,81.05
2019-03-05T01:10:10.317Z,81.01
2019-03-05T01:12:42.003Z,81.41
2019-03-05T01:15:13.992Z,81.48
2019-03-05T01:17:45.979Z,81.20
2019-03-05T01:20:17.939Z,80.22
2019-03-05T01:22:49.932Z,81.07
2019-03-05T01:25:26.258Z,78.60
2019-03-05T01:27:58.247Z,79.12
2019-03-05T01:30:50.500Z,80.34
2019-03-05T01:33:23.020Z,81.00
2019-03-05T01:35:59.376Z,79.59
2019-03-05T01:38:36.954Z,80.16
2019-03-05T01:41:08.933Z,78.61
2019-03-05T01:43:40.918Z,78.62
2019-03-05T01:46:12.875Z,78.29
2019-03-05T01:48:44.884Z,76.71
2019-03-05T01:51:16.834Z,78.08
2019-03-05T01:53:48.850Z,77.10
2019-03-05T01:56:20.816Z,77.42
2019-03-05T01:58:52.791Z,78.37
2019-03-05T02:01:24.769Z,76.63
2019-03-05T02:03:56.761Z,77.44
2019-03-05T02:06:28.717Z,77.45
2019-03-05T02:09:00.773Z,77.33
2019-03-05T02:11:32.762Z,77.11
2019-03-05T02:14:04.741Z,78.17
2019-03-05T02:16:36.709Z,78.19
2019-03-05T02:19:34.497Z,78.33
2019-03-05T02:22:24.996Z,79.00
2019-03-05T02:25:42.004Z,80.07
2019-03-05T02:28:48.169Z,79.68
2019-03-05T02:31:57.139Z,78.58
2019-03-05T02:35:06.256Z,78.80
2019-03-05T02:38:08.958Z,78.51
2019-03-05T02:41:28.613Z,79.83
2019-03-05T02:44:19.319Z,78.63
2019-03-05T02:48:03.680Z,79.61
2019-03-05T02:50:46.816Z,80.47
2019-03-05T02:54:12.481Z,80.75
2019-03-05T02:57:05.304Z,80.65
2019-03-05T02:59:37.794Z,80.66
2019-03-05T03:02:32.479Z,81.34
2019-03-05T03:05:23.097Z,81.36
2019-03-05T03:07:55.078Z,80.89
2019-03-05T03:10:27.053Z,80.83
2019-03-05T03:12:59.010Z,79.71
2019-03-05T03:15:30.965Z,80.45
2019-03-05T03:18:03.015Z,79.89
2019-03-05T03:20:35.032Z,80.26
2019-03-05T03:23:07.045Z,79.36
2019-03-05T03:25:39.002Z,79.86
2019-03-05T03:28:11.067Z,79.79
2019-03-05T03:30:43.055Z,80.17
2019-03-05T03:33:15.204Z,79.50
2019-03-05T03:35:47.148Z,77.90
2019-03-05T03:38:19.131Z,78.48
2019-03-05T03:40:51.069Z,77.73
2019-03-05T03:43:23.072Z,77.70
2019-03-05T03:45:55.057Z,76.91
2019-03-05T03:48:27.034Z,76.21
2019-03-05T03:50:59.011Z,76.70
2019-03-05T03:53:31.005Z,77.45
2019-03-05T03:56:02.956Z,77.81
2019-03-05T03:58:34.946Z,78.38
2019-03-05T04:01:07.424Z,78.15
2019-03-05T04:03:39.626Z,77.52
2019-03-05T04:06:11.589Z,76.44
2019-03-05T04:08:43.777Z,75.50
2019-03-05T04:11:15.741Z,75.19
2019-03-05T04:13:47.701Z,75.76
2019-03-05T04:16:19.644Z,75.64
2019-03-05T04:18:51.600Z,75.86
2019-03-05T04:21:23.542Z,75.76
2019-03-05T04:23:55.533Z,75.45
2019-03-05T04:26:27.500Z,75.97
2019-03-05T04:28:59.600Z,75.57
2019-03-05T04:31:32.705Z,76.47
2019-03-05T04:34:04.721Z,76.67
2019-03-05T04:36:36.665Z,76.05
2019-03-05T04:39:10.849Z,75.67
2019-03-05T04:41:42.813Z,76.03
2019-03-05T04:44:19.651Z,75.90
2019-03-05T04:46:53.881Z,76.69
2019-03-05T04:49:39.994Z,77.90
2019-03-05T04:52:14.288Z,78.51
2019-03-05T04:54:46.259Z,78.47
2019-03-05T04:57:18.333Z,78.78
2019-03-05T04:59:50.351Z,78.30
2019-03-05T05:02:22.317Z,78.83
2019-03-05T05:04:54.307Z,78.95
2019-03-05T05:07:26.268Z,79.36
2019-03-05T05:09:58.253Z,79.56
2019-03-05T05:12:30.218Z,79.80
2019-03-05T05:15:02.220Z,79.61
2019-03-05T05:17:36.009Z,78.06
2019-03-05T05:20:08.017Z,78.54
2019-03-05T05:22:41.787Z,78.01
2019-03-05T05:25:13.762Z,78.13
2019-03-05T05:27:47.543Z,78.16
2019-03-05T05:30:48.274Z,77.73
2019-03-05T05:33:20.237Z,77.77
2019-03-05T05:35:52.248Z,77.96
2019-03-05T05:38:24.211Z,77.89
2019-03-05T05:40:56.247Z,78.50
2019-03-05T05:43:29.518Z,78.37
2019-03-05T05:46:01.517Z,78.24
2019-03-05T05:48:33.478Z,78.38
2019-03-05T05:51:05.534Z,78.82
2019-03-05T05:53:37.512Z,79.07
2019-03-05T05:56:09.516Z,79.28
2019-03-05T05:58:41.490Z,79.43
2019-03-05T06:01:13.501Z,79.43
2019-03-05T06:03:45.468Z,79.38
2019-03-05T06:06:17.458Z,79.48
2019-03-05T06:08:49.493Z,79.59
2019-03-05T06:11:21.500Z,79.65
2019-03-05T06:13:53.460Z,79.53
2019-03-05T06:16:25.474Z,78.59
2019-03-05T06:18:57.430Z,77.62
2019-03-05T06:21:29.437Z,78.65
2019-03-05T06:24:01.425Z,77.71
2019-03-05T06:26:33.392Z,78.57
2019-03-05T06:29:05.386Z,78.82
2019-03-05T06:31:37.350Z,78.77
2019-03-05T06:34:09.357Z,78.41
2019-03-05T06:36:55.278Z,77.97
2019-03-05T06:39:27.280Z,77.31
2019-03-05T06:41:59.253Z,76.70
2019-03-05T06:44:31.318Z,76.60
2019-03-05T06:47:03.317Z,75.39
2019-03-05T06:49:35.326Z,74.22
2019-03-05T06:52:07.313Z,72.02
2019-03-05T06:54:39.310Z,70.90
2019-03-05T06:57:11.328Z,70.37
2019-03-05T06:59:43.315Z,70.53
2019-03-05T07:02:15.293Z,72.32
2019-03-05T07:04:56.363Z,73.36
2019-03-05T07:07:29.874Z,73.83
2019-03-05T07:10:29.547Z,73.55
2019-03-05T07:13:16.553Z,71.68
2019-03-05T07:16:19.276Z,71.18
2019-03-05T07:19:13.747Z,70.93
2019-03-05T07:22:39.628Z,71.11
2019-03-05T07:25:11.654Z,71.55
2019-03-05T07:27:50.986Z,71.45
2019-03-05T07:30:24.452Z,71.13
2019-03-05T07:32:57.918Z,72.63
2019-03-05T07:35:31.990Z,72.04
2019-03-05T07:38:04.279Z,70.77
2019-03-05T07:40:36.422Z,70.29
2019-03-05T07:43:08.422Z,71.06
2019-03-05T07:45:40.430Z,70.38
2019-03-05T07:48:12.442Z,71.00
2019-03-05T07:50:44.490Z,70.40
2019-03-05T07:53:16.459Z,70.80
2019-03-05T07:55:48.467Z,71.34
2019-03-05T07:58:20.455Z,70.43
2019-03-05T08:00:52.485Z,68.42
2019-03-05T08:03:24.469Z,66.11
2019-03-05T08:05:56.483Z,65.30
2019-03-05T08:09:06.486Z,65.14
2019-03-05T08:11:38.501Z,62.62
2019-03-05T08:14:45.179Z,63.42
2019-03-05T08:17:17.415Z,62.97
2019-03-05T08:19:49.392Z,62.81
2019-03-05T08:22:21.631Z,61.35
2019-03-05T08:24:53.590Z,60.63
2019-03-05T08:27:25.612Z,61.12
2019-03-05T08:29:57.646Z,61.64
2019-03-05T08:32:29.641Z,59.24
2019-03-05T08:35:01.667Z,58.90
2019-03-05T08:37:33.835Z,59.45
2019-03-05T08:40:07.258Z,59.00
2019-03-05T08:42:39.252Z,58.29
2019-03-05T08:45:12.519Z,59.00
2019-03-05T08:47:44.528Z,57.77
2019-03-05T08:50:16.673Z,58.94
2019-03-05T08:52:48.682Z,59.33
2019-03-05T08:55:20.668Z,58.44
2019-03-05T08:57:52.693Z,59.27
2019-03-05T09:00:24.665Z,59.93
2019-03-05T09:02:56.663Z,60.34
2019-03-05T09:05:28.649Z,60.15
2019-03-05T09:08:00.647Z,59.35
2019-03-05T09:10:32.634Z,60.27
2019-03-05T09:13:06.368Z,59.19
2019-03-05T09:15:38.326Z,58.95
2019-03-05T09:18:10.384Z,58.08
2019-03-05T09:20:42.387Z,57.58
2019-03-05T09:23:14.446Z,57.37
2019-03-05T09:25:46.436Z,57.14
2019-03-05T09:28:18.453Z,57.24
2019-03-05T09:30:50.460Z,55.75
2019-03-05T09:33:22.448Z,55.24
2019-03-05T09:35:54.501Z,55.35
2019-03-05T09:38:26.537Z,55.27
2019-03-05T09:40:58.655Z,54.50
2019-03-05T09:43:30.712Z,53.64
2019-03-05T09:46:02.837Z,53.21
2019-03-05T09:48:34.933Z,53.04
2019-03-05T09:51:07.172Z,52.92
2019-03-05T09:53:39.311Z,52.43
2019-03-05T09:56:11.448Z,51.65
2019-03-05T09:58:43.519Z,50.55
2019-03-05T10:01:15.656Z,50.89
2019-03-05T10:03:47.799Z,50.08
2019-03-05T10:06:19.931Z,49.83
2019-03-05T10:08:51.916Z,49.11
2019-03-05T10:11:24.193Z,47.92
2019-03-05T10:13:56.311Z,48.10
2019-03-05T10:16:28.415Z,48.20
2019-03-05T10:19:00.439Z,48.99
2019-03-05T10:21:32.577Z,47.94
2019-03-05T10:24:10.470Z,47.07
2019-03-05T10:26:38.650Z,47.87
2019-03-05T10:29:10.756Z,47.47
2019-03-05T10:31:43.034Z,47.80
2019-03-05T10:34:15.156Z,47.56
2019-03-05T10:36:47.762Z,47.56
2019-03-05T10:39:30.864Z,46.36
2019-03-05T10:42:03.127Z,46.78
2019-03-05T10:44:35.121Z,46.52
2019-03-05T10:47:07.222Z,45.66
2019-03-05T10:49:39.379Z,45.66
2019-03-05T10:52:11.695Z,45.81
2019-03-05T10:54:43.764Z,45.81
2019-03-05T10:57:16.851Z,45.79
2019-03-05T10:59:50.059Z,46.07
2019-03-05T11:02:22.326Z,44.98
2019-03-05T11:04:56.055Z,44.30
2019-03-05T11:07:28.272Z,43.24
2019-03-05T11:10:00.365Z,43.27
2019-03-05T11:12:32.626Z,41.81
2019-03-05T11:15:04.795Z,43.05
2019-03-05T11:17:36.882Z,44.28
2019-03-05T11:20:08.897Z,44.07
2019-03-05T11:22:41.118Z,44.66
2019-03-05T11:25:13.641Z,43.75
2019-03-05T11:27:45.848Z,44.59
2019-03-05T11:30:21.272Z,44.81
2019-03-05T11:32:53.475Z,45.54
2019-03-05T11:35:26.807Z,45.85
2019-03-05T11:37:59.133Z,45.67
2019-03-05T11:40:31.245Z,46.29
2019-03-05T11:43:11.452Z,45.66
2019-03-05T11:45:43.642Z,46.21
2019-03-05T11:48:15.829Z,46.65
2019-03-05T11:50:47.897Z,46.69
2019-03-05T11:53:19.961Z,46.55
2019-03-05T11:55:52.025Z,45.94
2019-03-05T11:58:24.142Z,46.83
2019-03-05T12:01:04.767Z,46.83
2019-03-05T12:03:36.840Z,46.88
2019-03-05T12:06:08.955Z,46.94
2019-03-05T12:08:40.998Z,47.39
2019-03-05T12:11:12.998Z,47.67
2019-03-05T12:13:45.157Z,47.69
2019-03-05T12:16:17.120Z,47.65
2019-03-05T12:18:49.150Z,47.94
2019-03-05T12:21:21.128Z,48.67
2019-03-05T12:23:53.178Z,48.67
2019-03-05T12:26:25.196Z,48.01
2019-03-05T12:28:57.212Z,48.39
2019-03-05T12:31:29.214Z,48.53
2019-03-05T12:34:01.208Z,48.72
2019-03-05T12:36:33.294Z,49.22
2019-03-05T12:39:05.697Z,48.42
2019-03-05T12:41:37.680Z,48.81
2019-03-05T12:44:09.669Z,48.81
2019-03-05T12:46:41.681Z,49.14
2019-03-05T12:49:13.673Z,49.48
2019-03-05T12:51:45.720Z,49.85
2019-03-05T12:54:17.752Z,50.58
2019-03-05T12:56:49.796Z,50.49
2019-03-05T12:59:21.785Z,50.72
2019-03-05T13:01:53.854Z,50.96
2019-03-05T13:04:25.868Z,51.39
2019-03-05T13:06:57.902Z,51.67
2019-03-05T13:09:29.875Z,51.81
2019-03-05T13:12:01.896Z,52.73
2019-03-05T13:14:33.907Z,52.12
2019-03-05T13:17:05.937Z,52.05
2019-03-05T13:19:38.858Z,52.45
2019-03-05T13:22:10.959Z,52.51
2019-03-05T13:24:46.788Z,53.02
2019-03-05T13:27:18.730Z,53.89
2019-03-05T13:29:50.810Z,54.33
2019-03-05T13:32:22.835Z,53.58
2019-03-05T13:34:54.825Z,55.23
2019-03-05T13:37:28.552Z,56.68
2019-03-05T13:40:00.858Z,56.84
2019-03-05T13:42:34.754Z,56.20
2019-03-05T13:45:09.158Z,56.71
2019-03-05T13:47:44.001Z,55.14
2019-03-05T13:51:19.528Z,54.83
2019-03-05T13:54:39.608Z,55.73
2019-03-05T13:57:58.497Z,54.58
2019-03-05T14:00:30.498Z,55.52
2019-03-05T14:03:12.678Z,56.75
2019-03-05T14:06:10.818Z,57.58
2019-03-05T14:09:14.831Z,58.74
2019-03-05T14:11:50.507Z,60.03
2019-03-05T14:14:29.388Z,60.03
2019-03-05T14:17:22.810Z,60.69
2019-03-05T14:19:54.852Z,61.55
2019-03-05T14:22:26.819Z,63.68
2019-03-05T14:25:02.452Z,65.97
2019-03-05T14:27:32.779Z,66.14
2019-03-05T14:30:07.105Z,66.73
2019-03-05T14:32:39.141Z,67.18
2019-03-05T14:35:23.221Z,68.86
2019-03-05T14:37:55.321Z,68.73
2019-03-05T14:40:29.432Z,69.04
2019-03-05T14:43:01.901Z,70.69
2019-03-05T14:45:35.450Z,70.54
2019-03-05T14:48:07.537Z,71.38
2019-03-05T14:50:40.073Z,72.23
2019-03-05T14:53:12.171Z,73.67
2019-03-05T14:55:45.689Z,73.80
2019-03-05T14:58:19.537Z,74.28
2019-03-05T15:00:51.970Z,74.48
2019-03-05T15:03:24.106Z,75.91
2019-03-05T15:05:57.904Z,76.44
2019-03-05T15:08:30.115Z,76.42
2019-03-05T15:11:02.212Z,76.15
2019-03-05T15:13:34.190Z,76.96
2019-03-05T15:16:06.254Z,76.26
2019-03-05T15:18:38.240Z,77.24
2019-03-05T15:21:10.456Z,77.99
2019-03-05T15:23:43.814Z,78.69
2019-03-05T15:26:15.890Z,79.18
2019-03-05T15:28:56.332Z,79.25
2019-03-05T15:31:21.767Z,79.33
2019-03-05T15:33:53.766Z,79.55
2019-03-05T15:36:25.887Z,80.38
2019-03-05T15:38:57.925Z,80.72
2019-03-05T15:41:30.150Z,80.89
2019-03-05T15:44:02.148Z,81.14
2019-03-05T15:46:34.267Z,81.46
2019-03-05T15:49:06.340Z,81.59
2019-03-05T15:51:38.569Z,81.85
2019-03-05T15:54:10.578Z,81.88
2019-03-05T15:56:42.798Z,82.82
2019-03-05T15:59:14.849Z,82.90
2019-03-05T16:01:47.000Z,82.40
2019-03-05T16:04:19.012Z,82.35
2019-03-05T16:06:51.076Z,83.14
2019-03-05T16:09:23.090Z,83.62
2019-03-05T16:11:55.118Z,83.49
2019-03-05T16:14:29.560Z,83.11
2019-03-05T16:17:01.061Z,83.80
2019-03-05T16:19:33.125Z,82.08
2019-03-05T16:22:05.371Z,82.32
2019-03-05T16:24:37.684Z,83.75
2019-03-05T16:27:11.084Z,84.34
2019-03-05T16:29:43.117Z,84.59
2019-03-05T16:32:40.748Z,83.83
2019-03-05T16:35:35.056Z,83.68
2019-03-05T16:38:25.393Z,82.72
2019-03-05T16:41:32.479Z,82.63
2019-03-05T16:44:17.140Z,82.87
2019-03-05T16:46:55.351Z,83.72
2019-03-05T16:49:35.267Z,84.50
2019-03-05T16:52:15.995Z,84.77
2019-03-05T16:54:59.261Z,85.16
2019-03-05T16:57:50.958Z,85.82
2019-03-05T17:00:49.253Z,85.82
2019-03-05T17:03:44.158Z,86.12
2019-03-05T17:06:24.540Z,85.78
2019-03-05T17:09:28.185Z,86.03
2019-03-05T17:12:00.556Z,86.33
2019-03-05T17:14:32.661Z,86.46
2019-03-05T17:17:04.691Z,86.84
2019-03-05T17:19:36.793Z,87.08
2019-03-05T17:22:08.788Z,87.44
2019-03-05T17:24:40.839Z,87.75
2019-03-05T17:27:12.866Z,87.79
2019-03-05T17:29:45.003Z,87.90
2019-03-05T17:32:17.230Z,88.08
2019-03-05T17:34:49.281Z,87.34
2019-03-05T17:37:21.355Z,87.65
2019-03-05T17:39:53.438Z,88.46
2019-03-05T17:42:25.487Z,88.67
2019-03-05T17:44:57.520Z,88.99
2019-03-05T17:47:29.552Z,88.88
2019-03-05T17:50:01.618Z,88.72
2019-03-05T17:52:40.002Z,88.83
2019-03-05T17:55:23.827Z,88.86
2019-03-05T17:57:49.105Z,88.85
2019-03-05T18:00:33.322Z,88.83
2019-03-05T18:03:05.359Z,88.84
2019-03-05T18:05:37.452Z,89.15
2019-03-05T18:08:09.771Z,89.25
2019-03-05T18:10:41.910Z,89.42
2019-03-05T18:13:14.117Z,89.44
2019-03-05T18:15:46.146Z,89.44
2019-03-05T18:18:18.550Z,89.40
2019-03-05T18:20:50.695Z,89.32
2019-03-05T18:23:22.750Z,89.32
2019-03-05T18:25:54.866Z,89.21
2019-03-05T18:28:26.958Z,89.05
2019-03-05T18:30:59.049Z,89.27
2019-03-05T18:33:34.361Z,89.68
2019-03-05T18:36:06.422Z,89.80
2019-03-05T18:38:38.947Z,89.79
2019-03-05T18:41:11.021Z,89.16
2019-03-05T18:43:43.157Z,88.39
2019-03-05T18:46:15.188Z,87.11
2019-03-05T18:48:47.629Z,87.49
2019-03-05T18:51:19.762Z,86.54
2019-03-05T18:53:51.864Z,87.37
2019-03-05T18:56:23.959Z,87.16
2019-03-05T18:58:56.275Z,86.74
2019-03-05T19:01:28.339Z,87.11
2019-03-05T19:04:00.411Z,86.29
2019-03-05T19:06:32.459Z,86.33
2019-03-05T19:09:05.955Z,85.78
2019-03-05T19:11:38.071Z,86.04
2019-03-05T19:14:10.137Z,87.55
2019-03-05T19:16:42.211Z,88.31
2019-03-05T19:19:14.564Z,87.48
2019-03-05T19:21:46.609Z,86.89
2019-03-05T19:24:18.702Z,87.47
2019-03-05T19:26:50.757Z,87.68
2019-03-05T19:29:22.955Z,87.54
2019-03-05T19:31:55.032Z,88.16
2019-03-05T19:34:29.069Z,87.41
2019-03-05T19:37:01.131Z,88.13
2019-03-05T19:39:33.410Z,88.17
2019-03-05T19:42:05.448Z,88.25
2019-03-05T19:44:37.628Z,88.68
2019-03-05T19:47:09.706Z,88.99
2019-03-05T19:49:42.063Z,88.36
2019-03-05T19:52:14.133Z,88.29
2019-03-05T19:54:46.267Z,87.72
2019-03-05T19:57:18.387Z,87.98
2019-03-05T19:59:50.741Z,87.39
2019-03-05T20:02:22.862Z,87.59
2019-03-05T20:04:55.121Z,87.80
2019-03-05T20:07:27.204Z,87.95
2019-03-05T20:09:59.328Z,88.47
2019-03-05T20:12:31.431Z,88.71
2019-03-05T20:15:04.219Z,88.31
2019-03-05T20:17:36.288Z,87.20
2019-03-05T20:20:08.700Z,87.76
2019-03-05T20:22:40.885Z,88.14
2019-03-05T20:25:14.477Z,88.73
2019-03-05T20:27:48.509Z,89.05
2019-03-05T20:30:20.714Z,89.40
2019-03-05T20:32:52.934Z,89.16
2019-03-05T20:35:25.006Z,89.30
2019-03-05T20:37:57.064Z,89.34
2019-03-05T20:40:29.120Z,89.41
2019-03-05T20:43:01.287Z,89.25
2019-03-05T20:45:33.428Z,89.10
2019-03-05T20:48:05.598Z,89.55
2019-03-05T20:50:38.010Z,89.86
2019-03-05T20:53:10.197Z,89.41
2019-03-05T20:55:42.345Z,89.37
2019-03-05T20:58:14.454Z,89.65
2019-03-05T21:00:46.930Z,89.22
2019-03-05T21:03:19.060Z,88.68
2019-03-05T21:05:51.167Z,88.77
2019-03-05T21:08:23.300Z,88.89
2019-03-05T21:10:55.739Z,89.07
2019-03-05T21:13:27.891Z,89.06
2019-03-05T21:15:59.921Z,89.12
2019-03-05T21:18:32.013Z,89.22
2019-03-05T21:21:04.260Z,89.51
2019-03-05T21:23:36.425Z,89.85
2019-03-05T21:26:08.494Z,89.73
2019-03-05T21:28:40.652Z,89.67
2019-03-05T21:31:13.076Z,89.77
2019-03-05T21:33:45.139Z,89.33
2019-03-05T21:36:17.186Z,88.21
2019-03-05T21:38:49.263Z,88.63
2019-03-05T21:41:21.520Z,89.35
2019-03-05T21:43:53.571Z,89.64
2019-03-05T21:46:25.617Z,89.75
2019-03-05T21:48:58.067Z,89.90
2019-03-05T21:51:30.320Z,89.42
2019-03-05T21:54:02.525Z,89.65
2019-03-05T21:56:34.755Z,88.96
2019-03-05T21:59:06.963Z,89.13
2019-03-05T22:01:39.072Z,89.22
2019-03-05T22:04:11.107Z,89.60
2019-03-05T22:06:43.114Z,89.62
2019-03-05T22:09:15.194Z,89.85
2019-03-05T22:11:47.444Z,89.73
2019-03-05T22:14:19.476Z,89.73
2019-03-05T22:16:51.521Z,90.10
2019-03-05T22:19:23.522Z,90.00
2019-03-05T22:21:55.832Z,89.60
2019-03-05T22:24:27.882Z,89.08
2019-03-05T22:27:00.056Z,89.62
2019-03-05T22:29:32.079Z,89.70
2019-03-05T22:32:04.420Z,89.70
2019-03-05T22:34:36.563Z,89.78
2019-03-05T22:37:08.635Z,89.92
2019-03-05T22:39:40.901Z,90.07
2019-03-05T22:42:13.330Z,90.31
2019-03-05T22:44:45.409Z,90.47
2019-03-05T22:47:17.537Z,90.45
2019-03-05T22:49:49.580Z,90.57
2019-03-05T22:52:21.960Z,90.60
2019-03-05T22:54:53.966Z,90.59
2019-03-05T22:57:26.024Z,90.61
2019-03-05T22:59:58.036Z,90.59
2019-03-05T23:02:30.672Z,90.17
2019-03-05T23:05:02.917Z,89.37
2019-03-05T23:07:34.941Z,89.33
2019-03-05T23:10:07.966Z,89.40
2019-03-05T23:12:40.373Z,89.89
2019-03-05T23:15:13.469Z,89.99
2019-03-05T23:17:45.595Z,90.27
2019-03-05T23:20:17.579Z,90.31
2019-03-05T23:22:50.971Z,90.35
2019-03-05T23:25:23.054Z,90.32
2019-03-05T23:27:55.085Z,90.34
2019-03-05T23:30:27.129Z,90.58
2019-03-05T23:32:59.633Z,90.65
2019-03-05T23:35:31.735Z,90.53
2019-03-05T23:38:03.757Z,90.36
2019-03-05T23:40:35.735Z,90.47
2019-03-05T23:43:08.058Z,90.64
2019-03-05T23:45:40.067Z,90.40
2019-03-05T23:48:12.089Z,90.39
2019-03-05T23:50:44.101Z,90.56
2019-03-05T23:53:16.479Z,90.70
2019-03-05T23:55:48.511Z,90.74
2019-03-05T23:58:20.511Z,90.84
